createdAt,value
2023-05-02T00:00:31.879Z,101039.00
2023-05-02T00:02:58.715Z,101026.31
2023-05-02T00:05:25.826Z,101033.31
2023-05-02T00:07:52.621Z,101022.91
2023-05-02T00:10:19.401Z,101031.34
2023-05-02T00:12:46.100Z,101033.91
2023-05-02T00:15:12.687Z,101032.59
2023-05-02T00:17:42.947Z,101008.50
2023-05-02T00:20:11.613Z,101034.13
2023-05-02T00:22:38.585Z,101032.63
2023-05-02T00:25:05.863Z,101028.50
2023-05-02T00:27:33.306Z,101030.69
2023-05-02T00:30:00.504Z,101036.47
2023-05-02T00:32:28.157Z,101041.09
2023-05-02T00:34:54.734Z,101040.56
2023-05-02T00:37:21.336Z,101048.00
2023-05-02T00:39:47.801Z,101053.09
2023-05-02T00:42:14.267Z,101065.09
2023-05-02T00:44:40.781Z,101056.34
2023-05-02T00:47:07.354Z,101064.78
2023-05-02T00:49:33.831Z,101061.00
2023-05-02T00:52:00.593Z,101065.50
2023-05-02T00:54:27.132Z,101068.53
2023-05-02T00:56:53.564Z,101070.13
2023-05-02T00:59:20.351Z,101047.91
2023-05-02T01:01:58.502Z,101067.78
2023-05-02T01:04:36.915Z,101065.63
2023-05-02T01:07:19.042Z,101066.44
2023-05-02T01:10:18.016Z,101056.88
2023-05-02T01:12:48.370Z,101062.66
2023-05-02T01:15:20.693Z,101069.41
2023-05-02T01:17:47.757Z,101084.00
2023-05-02T01:20:17.445Z,101080.00
2023-05-02T01:22:44.739Z,101076.09
2023-05-02T01:25:26.706Z,101081.78
2023-05-02T01:28:17.682Z,101078.53
2023-05-02T01:30:46.269Z,101075.84
2023-05-02T01:33:15.505Z,101079.88
2023-05-02T01:35:42.953Z,101093.53
2023-05-02T01:38:09.995Z,101066.00
2023-05-02T01:40:37.065Z,101092.69
2023-05-02T01:43:05.958Z,101104.28
2023-05-02T01:45:33.439Z,101082.38
2023-05-02T01:48:00.899Z,101072.50
2023-05-02T01:50:27.739Z,101075.06
2023-05-02T01:52:55.610Z,101092.28
2023-05-02T01:55:23.642Z,101067.84
2023-05-02T01:57:51.684Z,101108.00
2023-05-02T02:00:18.755Z,101097.28
2023-05-02T02:02:46.688Z,101117.63
2023-05-02T02:05:14.241Z,101125.78
2023-05-02T02:07:40.782Z,101134.19
2023-05-02T02:10:07.866Z,101130.00
2023-05-02T02:12:42.902Z,101140.13
2023-05-02T02:15:16.301Z,101139.06
2023-05-02T02:18:02.630Z,101147.09
2023-05-02T02:20:30.137Z,101135.47
2023-05-02T02:22:57.400Z,101135.44
2023-05-02T02:25:24.586Z,101151.72
2023-05-02T02:27:51.721Z,101151.63
2023-05-02T02:30:18.512Z,101152.88
2023-05-02T02:32:45.151Z,101144.63
2023-05-02T02:35:12.026Z,101127.19
2023-05-02T02:37:42.047Z,101151.72
2023-05-02T02:40:17.940Z,101160.31
2023-05-02T02:43:06.106Z,101154.69
2023-05-02T02:45:40.010Z,101166.19
2023-05-02T02:48:28.660Z,101166.19
2023-05-02T02:51:09.638Z,101171.63
2023-05-02T02:54:05.907Z,101167.88
2023-05-02T02:56:39.698Z,101155.56
2023-05-02T02:59:12.534Z,101170.41
2023-05-02T03:01:43.609Z,101171.06
2023-05-02T03:04:11.132Z,101142.13
2023-05-02T03:06:38.101Z,101155.94
2023-05-02T03:09:04.740Z,101161.09
2023-05-02T03:11:31.283Z,101177.88
2023-05-02T03:13:57.840Z,101188.25
2023-05-02T03:16:38.401Z,101181.50
2023-05-02T03:19:05.834Z,101180.16
2023-05-02T03:21:32.900Z,101192.25
2023-05-02T03:24:00.673Z,101166.47
2023-05-02T03:26:27.538Z,101187.41
2023-05-02T03:28:55.572Z,101166.03
2023-05-02T03:31:24.065Z,101188.69
2023-05-02T03:33:53.088Z,101190.06
2023-05-02T03:36:19.875Z,101191.69
2023-05-02T03:38:46.400Z,101175.81
2023-05-02T03:41:13.578Z,101194.50
2023-05-02T03:43:40.304Z,101196.25
2023-05-02T03:46:09.175Z,101205.97
2023-05-02T03:48:35.772Z,101187.03
2023-05-02T03:51:03.837Z,101198.22
2023-05-02T03:53:33.720Z,101184.13
2023-05-02T03:56:00.469Z,101196.81
2023-05-02T03:58:27.271Z,101191.16
2023-05-02T04:00:54.267Z,101186.78
2023-05-02T04:03:21.223Z,101194.28
2023-05-02T04:05:48.049Z,101208.25
2023-05-02T04:08:14.759Z,101222.75
2023-05-02T04:10:41.220Z,101225.13
2023-05-02T04:13:07.790Z,101201.44
2023-05-02T04:15:34.288Z,101211.22
2023-05-02T04:18:00.908Z,101230.16
2023-05-02T04:20:27.478Z,101235.66
2023-05-02T04:22:54.049Z,101222.41
2023-05-02T04:25:20.936Z,101233.78
2023-05-02T04:27:47.626Z,101240.56
2023-05-02T04:30:14.459Z,101215.91
2023-05-02T04:32:40.997Z,101225.81
2023-05-02T04:35:07.864Z,101242.28
2023-05-02T04:37:34.680Z,101230.13
2023-05-02T04:40:01.388Z,101252.72
2023-05-02T04:42:28.020Z,101223.50
2023-05-02T04:44:54.512Z,101247.63
2023-05-02T04:47:21.153Z,101248.25
2023-05-02T04:49:48.082Z,101240.22
2023-05-02T04:52:14.889Z,101263.94
2023-05-02T04:54:41.342Z,101273.47
2023-05-02T04:57:09.866Z,101272.16
2023-05-02T04:59:37.085Z,101286.44
2023-05-02T05:02:03.708Z,101284.53
2023-05-02T05:04:30.708Z,101268.59
2023-05-02T05:06:57.336Z,101293.09
2023-05-02T05:09:23.813Z,101294.50
2023-05-02T05:11:50.325Z,101300.47
2023-05-02T05:14:17.140Z,101295.06
2023-05-02T05:16:43.847Z,101306.31
2023-05-02T05:19:10.330Z,101308.44
2023-05-02T05:21:36.947Z,101305.72
2023-05-02T05:24:03.659Z,101310.56
2023-05-02T05:26:30.162Z,101306.91
2023-05-02T05:28:56.771Z,101318.06
2023-05-02T05:31:24.367Z,101318.22
2023-05-02T05:33:50.998Z,101333.47
2023-05-02T05:36:17.802Z,101324.53
2023-05-02T05:38:44.673Z,101346.22
2023-05-02T05:41:11.215Z,101329.47
2023-05-02T05:43:38.400Z,101360.59
2023-05-02T05:46:05.286Z,101363.00
2023-05-02T05:48:31.902Z,101323.22
2023-05-02T05:50:58.406Z,101347.34
2023-05-02T05:53:24.884Z,101321.63
2023-05-02T05:55:51.435Z,101358.81
2023-05-02T05:58:17.963Z,101339.94
2023-05-02T06:00:44.518Z,101366.28
2023-05-02T06:03:11.416Z,101377.44
2023-05-02T06:05:37.988Z,101346.19
2023-05-02T06:08:04.729Z,101377.69
2023-05-02T06:10:31.580Z,101374.16
2023-05-02T06:12:58.355Z,101342.81
2023-05-02T06:15:24.930Z,101362.16
2023-05-02T06:17:52.446Z,101383.53
2023-05-02T06:20:19.146Z,101384.84
2023-05-02T06:22:45.925Z,101375.47
2023-05-02T06:25:12.431Z,101393.03
2023-05-02T06:27:38.868Z,101397.59
2023-05-02T06:30:06.548Z,101374.38
2023-05-02T06:32:33.172Z,101377.91
2023-05-02T06:35:00.198Z,101394.16
2023-05-02T06:37:27.088Z,101319.06
2023-05-02T06:39:53.620Z,101409.06
2023-05-02T06:42:20.593Z,101422.72
2023-05-02T06:44:47.148Z,101424.59
2023-05-02T06:47:14.022Z,101432.53
2023-05-02T06:49:40.599Z,101434.50
2023-05-02T06:52:07.071Z,101442.75
2023-05-02T06:54:33.522Z,101444.38
2023-05-02T06:56:59.987Z,101423.59
2023-05-02T06:59:26.414Z,101453.44
2023-05-02T07:01:52.906Z,101432.78
2023-05-02T07:04:19.490Z,101372.03
2023-05-02T07:06:46.617Z,101458.72
2023-05-02T07:09:13.236Z,101445.16
2023-05-02T07:11:39.742Z,101441.34
2023-05-02T07:14:06.458Z,101467.53
2023-05-02T07:16:33.006Z,101472.91
2023-05-02T07:19:01.592Z,101464.78
2023-05-02T07:21:28.501Z,101479.13
2023-05-02T07:23:57.558Z,101481.16
2023-05-02T07:26:25.285Z,101498.09
2023-05-02T07:28:51.952Z,101492.88
2023-05-02T07:31:19.014Z,101502.31
2023-05-02T07:33:45.724Z,101507.81
2023-05-02T07:36:12.211Z,101501.84
2023-05-02T07:38:38.726Z,101476.22
2023-05-02T07:41:05.370Z,101511.25
2023-05-02T07:43:32.404Z,101489.75
2023-05-02T07:46:04.182Z,101521.75
2023-05-02T07:48:31.158Z,101531.75
2023-05-02T07:51:06.171Z,101548.34
2023-05-02T07:53:32.738Z,101556.31
2023-05-02T07:55:59.513Z,101449.25
2023-05-02T07:58:25.978Z,101564.91
2023-05-02T08:00:52.636Z,101575.47
2023-05-02T08:03:19.212Z,101573.09
2023-05-02T08:05:45.799Z,101545.97
2023-05-02T08:08:12.303Z,101576.63
2023-05-02T08:10:38.898Z,101587.22
2023-05-02T08:13:05.408Z,101591.63
2023-05-02T08:15:31.943Z,101595.31
2023-05-02T08:17:59.786Z,101596.94
2023-05-02T08:20:26.368Z,101613.50
2023-05-02T08:22:53.153Z,101608.53
2023-05-02T08:25:19.681Z,101602.28
2023-05-02T08:27:46.445Z,101603.25
2023-05-02T08:30:13.349Z,101599.09
2023-05-02T08:32:40.121Z,101629.03
2023-05-02T08:35:07.103Z,101627.78
2023-05-02T08:37:33.992Z,101639.63
2023-05-02T08:40:01.107Z,101619.00
2023-05-02T08:42:28.982Z,101644.44
2023-05-02T08:44:55.414Z,101650.09
2023-05-02T08:47:22.797Z,101625.41
2023-05-02T08:49:50.130Z,101652.34
2023-05-02T08:52:20.080Z,101651.25
2023-05-02T08:54:46.713Z,101657.66
2023-05-02T08:57:13.531Z,101659.09
2023-05-02T08:59:40.061Z,101656.81
2023-05-02T09:02:28.826Z,101565.25
2023-05-02T09:04:56.976Z,101676.69
2023-05-02T09:07:23.555Z,101677.94
2023-05-02T09:09:50.266Z,101682.69
2023-05-02T09:12:17.037Z,101672.28
2023-05-02T09:14:44.793Z,101671.47
2023-05-02T09:17:11.441Z,101685.63
2023-05-02T09:19:37.952Z,101673.50
2023-05-02T09:22:04.468Z,101655.50
2023-05-02T09:24:31.083Z,101694.84
2023-05-02T09:27:04.234Z,101692.50
2023-05-02T09:29:35.888Z,101707.84
2023-05-02T09:32:04.126Z,101705.03
2023-05-02T09:34:33.738Z,101696.19
2023-05-02T09:37:00.381Z,101683.06
2023-05-02T09:39:31.457Z,101721.22
2023-05-02T09:41:58.894Z,101716.06
2023-05-02T09:44:27.644Z,101719.09
2023-05-02T09:46:55.945Z,101713.06
2023-05-02T09:49:57.993Z,101724.91
2023-05-02T09:52:24.582Z,101725.28
2023-05-02T09:54:52.854Z,101723.84
2023-05-02T09:57:19.832Z,101734.81
2023-05-02T09:59:56.780Z,101698.84
2023-05-02T10:02:24.673Z,101730.06
2023-05-02T10:04:53.673Z,101736.47
2023-05-02T10:07:20.594Z,101740.13
2023-05-02T10:09:49.678Z,101749.03
2023-05-02T10:12:17.047Z,101749.25
2023-05-02T10:14:50.184Z,101750.47
2023-05-02T10:17:23.635Z,101766.13
2023-05-02T10:20:07.591Z,101759.94
2023-05-02T10:22:35.305Z,101754.09
2023-05-02T10:25:03.654Z,101768.81
2023-05-02T10:27:32.190Z,101771.06
2023-05-02T10:30:00.528Z,101769.41
2023-05-02T10:32:30.092Z,101737.13
2023-05-02T10:34:57.805Z,101731.00
2023-05-02T10:37:26.565Z,101758.13
2023-05-02T10:39:53.120Z,101753.47
2023-05-02T10:42:20.334Z,101754.41
2023-05-02T10:44:47.728Z,101749.09
2023-05-02T10:47:27.393Z,101755.41
2023-05-02T10:50:01.978Z,101759.31
2023-05-02T10:52:34.158Z,101762.78
2023-05-02T10:55:23.658Z,101747.97
2023-05-02T10:58:05.423Z,101757.13
2023-05-02T11:00:33.750Z,101758.84
2023-05-02T11:03:01.514Z,101765.03
2023-05-02T11:05:28.456Z,101757.34
2023-05-02T11:08:20.074Z,101775.53
2023-05-02T11:10:47.266Z,101779.94
2023-05-02T11:13:13.838Z,101778.34
2023-05-02T11:15:40.374Z,101776.16
2023-05-02T11:18:08.305Z,101773.59
2023-05-02T11:20:36.838Z,101774.94
2023-05-02T11:23:15.883Z,101770.19
2023-05-02T11:25:44.753Z,101770.53
2023-05-02T11:28:39.414Z,101768.34
2023-05-02T11:31:55.622Z,101768.34
2023-05-02T11:34:22.285Z,101774.38
2023-05-02T11:36:48.817Z,101772.34
2023-05-02T11:39:19.562Z,101778.16
2023-05-02T11:41:48.308Z,101772.66
2023-05-02T11:44:15.012Z,101777.63
2023-05-02T11:46:41.996Z,101764.56
2023-05-02T11:49:09.802Z,101768.84
2023-05-02T11:51:37.359Z,101782.44
2023-05-02T11:54:03.998Z,101786.53
2023-05-02T11:56:31.427Z,101786.44
2023-05-02T11:59:01.838Z,101792.59
2023-05-02T12:01:28.420Z,101782.09
2023-05-02T12:04:08.268Z,101792.69
2023-05-02T12:06:35.471Z,101787.78
2023-05-02T12:09:10.155Z,101785.53
2023-05-02T12:11:38.197Z,101792.59
2023-05-02T12:14:08.059Z,101769.75
2023-05-02T12:16:35.014Z,101798.47
2023-05-02T12:19:01.846Z,101795.38
2023-05-02T12:21:33.392Z,101798.91
2023-05-02T12:24:01.774Z,101805.56
2023-05-02T12:26:30.916Z,101797.78
2023-05-02T12:28:58.909Z,101808.50
2023-05-02T12:31:28.150Z,101804.53
2023-05-02T12:33:57.509Z,101807.84
2023-05-02T12:36:24.454Z,101804.19
2023-05-02T12:38:55.133Z,101811.44
2023-05-02T12:41:38.623Z,101814.03
2023-05-02T12:44:06.091Z,101807.06
2023-05-02T12:46:33.048Z,101776.03
2023-05-02T12:49:02.841Z,101808.84
2023-05-02T12:51:31.526Z,101814.94
2023-05-02T12:53:58.225Z,101802.78
2023-05-02T12:56:27.589Z,101792.84
2023-05-02T12:58:54.144Z,101821.16
2023-05-02T13:01:20.791Z,101823.63
2023-05-02T13:03:47.977Z,101822.66
2023-05-02T13:06:14.518Z,101815.19
2023-05-02T13:08:41.180Z,101816.59
2023-05-02T13:11:07.963Z,101827.38
2023-05-02T13:13:35.514Z,101806.22
2023-05-02T13:16:02.329Z,101820.06
2023-05-02T13:18:28.984Z,101826.72
2023-05-02T13:20:55.608Z,101831.56
2023-05-02T13:23:22.278Z,101812.00
2023-05-02T13:25:48.796Z,101832.91
2023-05-02T13:28:15.432Z,101829.22
2023-05-02T13:30:42.252Z,101833.94
2023-05-02T13:33:09.087Z,101825.53
2023-05-02T13:35:36.081Z,101819.78
2023-05-02T13:38:03.362Z,101840.88
2023-05-02T13:40:29.909Z,101841.28
2023-05-02T13:42:56.457Z,101847.03
2023-05-02T13:45:23.132Z,101844.91
2023-05-02T13:47:49.931Z,101850.81
2023-05-02T13:50:16.661Z,101846.91
2023-05-02T13:52:43.233Z,101815.16
2023-05-02T13:55:09.863Z,101851.53
2023-05-02T13:57:36.403Z,101855.03
2023-05-02T14:00:04.856Z,101855.44
2023-05-02T14:02:31.662Z,101853.63
2023-05-02T14:04:58.447Z,101853.06
2023-05-02T14:07:24.906Z,101849.16
2023-05-02T14:09:51.433Z,101846.50
2023-05-02T14:12:18.004Z,101855.50
2023-05-02T14:14:44.501Z,101863.03
2023-05-02T14:17:11.008Z,101864.34
2023-05-02T14:19:37.527Z,101861.19
2023-05-02T14:22:04.057Z,101856.34
2023-05-02T14:24:30.575Z,101855.38
2023-05-02T14:26:58.342Z,101849.91
2023-05-02T14:29:24.818Z,101865.28
2023-05-02T14:31:51.644Z,101867.69
2023-05-02T14:34:18.365Z,101864.75
2023-05-02T14:36:44.913Z,101866.59
2023-05-02T14:39:11.515Z,101857.00
2023-05-02T14:41:37.997Z,101855.84
2023-05-02T14:44:04.715Z,101852.72
2023-05-02T14:46:31.249Z,101857.75
2023-05-02T14:48:57.864Z,101839.94
2023-05-02T14:51:24.547Z,101856.88
2023-05-02T14:53:51.385Z,101854.16
2023-05-02T14:56:18.759Z,101866.19
2023-05-02T14:58:45.485Z,101857.63
2023-05-02T15:01:19.260Z,101865.81
2023-05-02T15:04:04.196Z,101829.06
2023-05-02T15:06:31.577Z,101847.34
2023-05-02T15:08:58.162Z,101846.03
2023-05-02T15:11:25.244Z,101865.31
2023-05-02T15:13:51.750Z,101854.47
2023-05-02T15:16:18.505Z,101861.28
2023-05-02T15:18:45.413Z,101853.41
2023-05-02T15:21:11.998Z,101850.53
2023-05-02T15:23:38.507Z,101859.91
2023-05-02T15:26:05.465Z,101839.63
2023-05-02T15:28:31.952Z,101858.19
2023-05-02T15:30:58.587Z,101857.66
2023-05-02T15:33:25.128Z,101864.88
2023-05-02T15:35:58.481Z,101824.91
2023-05-02T15:38:25.183Z,101860.16
2023-05-02T15:40:58.371Z,101869.50
2023-05-02T15:43:25.418Z,101874.94
2023-05-02T15:45:56.591Z,101883.31
2023-05-02T15:48:23.997Z,101861.25
2023-05-02T15:50:52.429Z,101873.75
2023-05-02T15:53:22.146Z,101873.97
2023-05-02T15:55:50.126Z,101881.75
2023-05-02T15:58:17.619Z,101874.09
2023-05-02T16:00:44.879Z,101879.69
2023-05-02T16:03:15.377Z,101869.56
2023-05-02T16:05:42.114Z,101887.94
2023-05-02T16:08:08.979Z,101853.16
2023-05-02T16:10:36.570Z,101884.25
2023-05-02T16:13:03.563Z,101885.91
2023-05-02T16:15:30.512Z,101884.38
2023-05-02T16:17:57.554Z,101867.38
2023-05-02T16:20:24.313Z,101888.97
2023-05-02T16:22:51.567Z,101886.41
2023-05-02T16:25:18.852Z,101890.63
2023-05-02T16:27:45.779Z,101891.38
2023-05-02T16:30:12.849Z,101887.47
2023-05-02T16:32:39.755Z,101864.91
2023-05-02T16:35:08.288Z,101889.59
2023-05-02T16:37:35.758Z,101888.25
2023-05-02T16:40:05.403Z,101900.09
2023-05-02T16:42:32.555Z,101889.28
2023-05-02T16:44:59.130Z,101896.72
2023-05-02T16:47:26.883Z,101856.31
2023-05-02T16:49:57.336Z,101868.91
2023-05-02T16:52:25.489Z,101891.28
2023-05-02T16:54:52.879Z,101886.00
2023-05-02T16:57:20.890Z,101886.47
2023-05-02T16:59:48.147Z,101893.16
2023-05-02T17:02:15.084Z,101886.34
2023-05-02T17:04:41.905Z,101896.28
2023-05-02T17:07:08.844Z,101889.31
2023-05-02T17:09:37.249Z,101899.63
2023-05-02T17:12:04.927Z,101872.47
2023-05-02T17:14:34.382Z,101901.53
2023-05-02T17:17:01.126Z,101909.44
2023-05-02T17:19:27.945Z,101908.72
2023-05-02T17:21:55.723Z,101915.63
2023-05-02T17:24:22.318Z,101893.69
2023-05-02T17:26:49.215Z,101910.28
2023-05-02T17:29:15.765Z,101916.03
2023-05-02T17:31:42.963Z,101905.38
2023-05-02T17:34:09.581Z,101879.53
2023-05-02T17:36:36.646Z,101911.63
2023-05-02T17:39:03.950Z,101872.75
2023-05-02T17:41:31.264Z,101900.94
2023-05-02T17:43:57.940Z,101901.63
2023-05-02T17:46:24.511Z,101906.53
2023-05-02T17:48:52.044Z,101899.13
2023-05-02T17:51:18.603Z,101912.75
2023-05-02T17:53:45.766Z,101912.34
2023-05-02T17:56:14.227Z,101897.75
2023-05-02T17:58:40.841Z,101908.59
2023-05-02T18:01:08.683Z,101908.25
2023-05-02T18:03:35.757Z,101909.31
2023-05-02T18:06:02.480Z,101896.34
2023-05-02T18:08:31.260Z,101907.25
2023-05-02T18:10:58.763Z,101918.00
2023-05-02T18:13:26.485Z,101919.94
2023-05-02T18:15:57.117Z,101909.59
2023-05-02T18:18:23.905Z,101922.72
2023-05-02T18:20:50.383Z,101933.81
2023-05-02T18:23:17.050Z,101936.22
2023-05-02T18:25:44.104Z,101931.84
2023-05-02T18:28:10.737Z,101937.66
2023-05-02T18:30:37.955Z,101926.31
2023-05-02T18:33:05.126Z,101934.97
2023-05-02T18:35:31.811Z,101944.94
2023-05-02T18:37:58.548Z,101945.44
2023-05-02T18:40:25.159Z,101944.69
2023-05-02T18:42:51.801Z,101941.66
2023-05-02T18:45:18.526Z,101938.94
2023-05-02T18:47:45.038Z,101938.63
2023-05-02T18:50:11.519Z,101945.53
2023-05-02T18:52:38.073Z,101912.75
2023-05-02T18:55:06.116Z,101954.22
2023-05-02T18:57:33.881Z,101960.22
2023-05-02T19:00:00.701Z,101956.84
2023-05-02T19:02:27.492Z,101954.38
2023-05-02T19:04:54.128Z,101939.78
2023-05-02T19:07:20.702Z,101962.50
2023-05-02T19:09:47.193Z,101961.06
2023-05-02T19:12:13.645Z,101970.50
2023-05-02T19:14:40.279Z,101942.06
2023-05-02T19:17:06.877Z,101971.47
2023-05-02T19:19:33.599Z,101985.13
2023-05-02T19:22:00.322Z,101963.09
2023-05-02T19:24:26.992Z,101961.53
2023-05-02T19:26:53.650Z,101988.81
2023-05-02T19:29:20.600Z,101990.91
2023-05-02T19:31:47.159Z,101996.13
2023-05-02T19:34:13.700Z,101972.34
2023-05-02T19:36:40.652Z,101996.97
2023-05-02T19:39:07.532Z,101997.84
2023-05-02T19:41:34.523Z,102001.34
2023-05-02T19:44:01.018Z,102001.91
2023-05-02T19:46:27.702Z,101968.81
2023-05-02T19:48:55.439Z,102009.56
2023-05-02T19:51:25.326Z,102010.94
2023-05-02T19:53:53.042Z,102015.66
2023-05-02T19:56:25.316Z,102013.41
2023-05-02T19:58:51.850Z,102016.16
2023-05-02T20:01:18.529Z,102026.59
2023-05-02T20:03:45.427Z,102014.66
2023-05-02T20:06:12.069Z,102020.09
2023-05-02T20:08:38.806Z,102035.72
2023-05-02T20:11:05.301Z,102042.97
2023-05-02T20:13:31.848Z,102046.75
2023-05-02T20:15:58.381Z,101998.59
2023-05-02T20:18:24.944Z,102007.97
2023-05-02T20:20:51.700Z,102031.50
2023-05-02T20:23:18.257Z,102039.34
2023-05-02T20:25:44.946Z,102044.78
2023-05-02T20:28:11.632Z,102050.97
2023-05-02T20:30:39.802Z,102013.66
2023-05-02T20:33:14.684Z,102015.72
2023-05-02T20:35:42.604Z,102038.91
2023-05-02T20:38:09.740Z,102004.75
2023-05-02T20:40:40.711Z,102050.69
2023-05-02T20:43:07.726Z,102046.53
2023-05-02T20:45:34.234Z,102056.81
2023-05-02T20:48:00.876Z,102061.09
2023-05-02T20:50:28.307Z,102038.84
2023-05-02T20:52:55.268Z,102061.16
2023-05-02T20:55:22.939Z,102018.44
2023-05-02T20:57:53.192Z,102055.94
2023-05-02T21:00:22.367Z,102065.00
2023-05-02T21:02:49.069Z,102051.31
2023-05-02T21:05:15.705Z,102060.88
2023-05-02T21:07:42.229Z,102035.72
2023-05-02T21:10:10.252Z,102046.16
2023-05-02T21:12:36.880Z,102057.94
2023-05-02T21:15:03.632Z,102063.63
2023-05-02T21:17:30.402Z,102062.28
2023-05-02T21:19:56.961Z,102063.63
2023-05-02T21:22:23.627Z,102066.66
2023-05-02T21:24:50.851Z,102074.41
2023-05-02T21:27:17.377Z,102062.75
2023-05-02T21:29:43.905Z,102042.13
2023-05-02T21:32:10.737Z,102061.34
2023-05-02T21:34:37.384Z,102070.25
2023-05-02T21:37:04.143Z,102064.72
2023-05-02T21:39:30.661Z,102051.91
2023-05-02T21:41:57.357Z,102068.22
2023-05-02T21:44:23.885Z,102055.97
2023-05-02T21:46:51.721Z,102052.66
2023-05-02T21:49:18.478Z,102069.38
2023-05-02T21:51:44.953Z,102070.56
2023-05-02T21:54:11.623Z,102070.59
2023-05-02T21:56:38.118Z,102067.81
2023-05-02T21:59:04.697Z,102070.81
2023-05-02T22:01:31.280Z,102065.50
2023-05-02T22:03:58.035Z,102074.38
2023-05-02T22:06:25.110Z,102070.69
2023-05-02T22:08:52.746Z,102070.88
2023-05-02T22:11:21.662Z,102043.28
2023-05-02T22:13:48.571Z,102071.72
2023-05-02T22:16:15.453Z,102071.13
2023-05-02T22:18:45.094Z,102084.22
2023-05-02T22:21:12.076Z,102078.31
2023-05-02T22:23:38.941Z,102057.09
2023-05-02T22:26:05.513Z,102073.88
2023-05-02T22:28:33.997Z,102074.53
2023-05-02T22:31:00.585Z,102088.50
2023-05-02T22:33:27.219Z,102071.88
2023-05-02T22:35:53.857Z,102080.63
2023-05-02T22:38:20.699Z,102050.84
2023-05-02T22:40:47.291Z,102060.78
2023-05-02T22:43:14.028Z,102055.63
2023-05-02T22:45:40.692Z,102095.34
2023-05-02T22:48:07.988Z,102066.75
2023-05-02T22:50:34.532Z,102093.63
2023-05-02T22:53:03.599Z,102099.22
2023-05-02T22:55:30.149Z,102076.34
2023-05-02T22:57:57.168Z,102090.13
2023-05-02T23:00:25.183Z,102098.69
2023-05-02T23:02:51.978Z,102068.59
2023-05-02T23:05:18.894Z,102091.94
2023-05-02T23:07:45.554Z,102078.47
2023-05-02T23:10:12.132Z,102082.81
2023-05-02T23:12:39.120Z,102072.38
2023-05-02T23:15:06.853Z,102058.66
2023-05-02T23:17:33.486Z,102091.81
2023-05-02T23:20:00.248Z,102052.09
2023-05-02T23:22:27.032Z,102074.44
2023-05-02T23:24:53.843Z,102069.28
2023-05-02T23:27:20.650Z,102091.03
2023-05-02T23:29:48.938Z,102091.63
2023-05-02T23:32:16.270Z,102087.09
2023-05-02T23:34:43.513Z,102047.13
2023-05-02T23:37:11.496Z,102059.91
2023-05-02T23:39:38.274Z,102089.59
2023-05-02T23:42:05.120Z,102095.34
2023-05-02T23:44:31.641Z,102089.66
2023-05-02T23:46:59.489Z,102086.53
2023-05-02T23:49:26.415Z,102061.09
2023-05-02T23:51:53.283Z,102084.44
2023-05-02T23:54:19.757Z,102092.72
2023-05-02T23:56:46.968Z,102086.25
2023-05-02T23:59:13.475Z,102088.94
